sensor_id;sensor_type;location;lat;lon;timestamp;P1;durP1;ratioP1;P2;durP2;ratioP2
12623;SDS011;6377;42.836;23.998;2022-10-30T00:04:08;10.67;;;8.20;;
12623;SDS011;6377;42.836;23.998;2022-10-30T00:06:35;10.20;;;7.60;;
12623;SDS011;6377;42.836;23.998;2022-10-30T00:09:02;10.23;;;7.10;;
12623;SDS011;6377;42.836;23.998;2022-10-30T00:11:29;11.23;;;8.10;;
12623;SDS011;6377;42.836;23.998;2022-10-30T00:13:56;12.87;;;9.60;;
12623;SDS011;6377;42.836;23.998;2022-10-30T00:16:23;15.73;;;10.10;;
12623;SDS011;6377;42.836;23.998;2022-10-30T00:18:51;14.27;;;10.07;;
12623;SDS011;6377;42.836;23.998;2022-10-30T00:21:19;11.87;;;8.80;;
12623;SDS011;6377;42.836;23.998;2022-10-30T00:23:47;14.37;;;9.97;;
12623;SDS011;6377;42.836;23.998;2022-10-30T00:26:16;14.50;;;9.30;;
12623;SDS011;6377;42.836;23.998;2022-10-30T00:28:47;16.30;;;9.90;;
12623;SDS011;6377;42.836;23.998;2022-10-30T00:31:15;11.30;;;7.70;;
12623;SDS011;6377;42.836;23.998;2022-10-30T00:33:43;13.10;;;7.97;;
12623;SDS011;6377;42.836;23.998;2022-10-30T00:36:14;13.30;;;8.10;;
12623;SDS011;6377;42.836;23.998;2022-10-30T00:38:42;12.30;;;7.37;;
12623;SDS011;6377;42.836;23.998;2022-10-30T00:41:12;9.13;;;7.53;;
12623;SDS011;6377;42.836;23.998;2022-10-30T00:43:41;11.20;;;7.70;;
12623;SDS011;6377;42.836;23.998;2022-10-30T00:46:12;12.13;;;7.43;;
12623;SDS011;6377;42.836;23.998;2022-10-30T00:48:44;10.10;;;6.90;;
12623;SDS011;6377;42.836;23.998;2022-10-30T00:51:15;12.47;;;8.43;;
12623;SDS011;6377;42.836;23.998;2022-10-30T00:53:45;10.43;;;6.27;;
12623;SDS011;6377;42.836;23.998;2022-10-30T00:56:15;11.80;;;5.70;;
12623;SDS011;6377;42.836;23.998;2022-10-30T00:58:45;11.73;;;7.03;;
12623;SDS011;6377;42.836;23.998;2022-10-30T01:01:18;7.87;;;5.90;;
12623;SDS011;6377;42.836;23.998;2022-10-30T01:03:50;27.47;;;14.80;;
12623;SDS011;6377;42.836;23.998;2022-10-30T01:06:20;44.27;;;22.47;;
12623;SDS011;6377;42.836;23.998;2022-10-30T01:08:53;24.97;;;13.90;;
12623;SDS011;6377;42.836;23.998;2022-10-30T01:11:21;14.70;;;9.80;;
12623;SDS011;6377;42.836;23.998;2022-10-30T01:13:49;14.10;;;8.40;;
12623;SDS011;6377;42.836;23.998;2022-10-30T01:19:25;9.53;;;6.67;;
12623;SDS011;6377;42.836;23.998;2022-10-30T01:22:06;9.07;;;6.33;;
12623;SDS011;6377;42.836;23.998;2022-10-30T01:24:48;11.77;;;7.43;;
12623;SDS011;6377;42.836;23.998;2022-10-30T01:27:26;10.77;;;7.27;;
12623;SDS011;6377;42.836;23.998;2022-10-30T01:30:07;9.83;;;6.77;;
12623;SDS011;6377;42.836;23.998;2022-10-30T01:32:46;10.53;;;7.20;;
12623;SDS011;6377;42.836;23.998;2022-10-30T01:35:26;10.50;;;8.10;;
12623;SDS011;6377;42.836;23.998;2022-10-30T01:37:58;10.20;;;6.73;;
12623;SDS011;6377;42.836;23.998;2022-10-30T01:40:31;10.73;;;7.77;;
12623;SDS011;6377;42.836;23.998;2022-10-30T01:42:59;12.73;;;8.20;;
12623;SDS011;6377;42.836;23.998;2022-10-30T01:45:30;14.53;;;8.90;;
12623;SDS011;6377;42.836;23.998;2022-10-30T01:48:16;14.27;;;8.03;;
12623;SDS011;6377;42.836;23.998;2022-10-30T01:50:59;12.67;;;7.73;;
12623;SDS011;6377;42.836;23.998;2022-10-30T01:53:42;13.20;;;7.77;;
12623;SDS011;6377;42.836;23.998;2022-10-30T01:56:19;12.90;;;8.20;;
12623;SDS011;6377;42.836;23.998;2022-10-30T01:58:56;12.03;;;8.47;;
12623;SDS011;6377;42.836;23.998;2022-10-30T02:01:29;14.13;;;9.33;;
12623;SDS011;6377;42.836;23.998;2022-10-30T02:03:59;15.00;;;8.80;;
12623;SDS011;6377;42.836;23.998;2022-10-30T02:06:27;13.73;;;9.57;;
12623;SDS011;6377;42.836;23.998;2022-10-30T02:08:54;12.93;;;8.83;;
12623;SDS011;6377;42.836;23.998;2022-10-30T02:11:23;9.23;;;7.07;;
12623;SDS011;6377;42.836;23.998;2022-10-30T02:13:53;8.80;;;6.60;;
12623;SDS011;6377;42.836;23.998;2022-10-30T02:16:23;8.27;;;6.40;;
12623;SDS011;6377;42.836;23.998;2022-10-30T02:18:51;7.13;;;5.97;;
12623;SDS011;6377;42.836;23.998;2022-10-30T02:21:20;7.27;;;5.70;;
12623;SDS011;6377;42.836;23.998;2022-10-30T02:23:48;7.30;;;6.23;;
12623;SDS011;6377;42.836;23.998;2022-10-30T02:26:15;8.17;;;5.50;;
12623;SDS011;6377;42.836;23.998;2022-10-30T02:28:42;11.13;;;6.10;;
12623;SDS011;6377;42.836;23.998;2022-10-30T02:31:09;8.77;;;6.13;;
12623;SDS011;6377;42.836;23.998;2022-10-30T02:33:36;12.60;;;8.37;;
12623;SDS011;6377;42.836;23.998;2022-10-30T02:36:04;11.60;;;8.47;;
12623;SDS011;6377;42.836;23.998;2022-10-30T02:38:33;14.50;;;9.40;;
12623;SDS011;6377;42.836;23.998;2022-10-30T02:41:00;15.43;;;9.37;;
12623;SDS011;6377;42.836;23.998;2022-10-30T02:43:27;10.53;;;7.77;;
12623;SDS011;6377;42.836;23.998;2022-10-30T02:45:55;9.10;;;7.47;;
12623;SDS011;6377;42.836;23.998;2022-10-30T02:48:22;10.03;;;8.07;;
12623;SDS011;6377;42.836;23.998;2022-10-30T02:50:49;10.97;;;7.60;;
12623;SDS011;6377;42.836;23.998;2022-10-30T02:53:16;14.33;;;6.87;;
12623;SDS011;6377;42.836;23.998;2022-10-30T02:55:46;8.67;;;6.30;;
12623;SDS011;6377;42.836;23.998;2022-10-30T02:58:13;6.17;;;5.53;;
12623;SDS011;6377;42.836;23.998;2022-10-30T03:00:40;6.00;;;5.10;;
12623;SDS011;6377;42.836;23.998;2022-10-30T03:03:07;8.17;;;6.33;;
12623;SDS011;6377;42.836;23.998;2022-10-30T03:05:35;8.97;;;5.80;;
12623;SDS011;6377;42.836;23.998;2022-10-30T03:08:02;6.63;;;5.80;;
12623;SDS011;6377;42.836;23.998;2022-10-30T03:10:29;11.03;;;6.50;;
12623;SDS011;6377;42.836;23.998;2022-10-30T03:12:58;10.30;;;7.00;;
12623;SDS011;6377;42.836;23.998;2022-10-30T03:15:25;9.57;;;7.20;;
12623;SDS011;6377;42.836;23.998;2022-10-30T03:17:53;9.67;;;6.53;;
12623;SDS011;6377;42.836;23.998;2022-10-30T03:20:20;9.97;;;6.67;;
12623;SDS011;6377;42.836;23.998;2022-10-30T03:22:47;14.60;;;8.07;;
12623;SDS011;6377;42.836;23.998;2022-10-30T03:25:14;18.77;;;9.10;;
12623;SDS011;6377;42.836;23.998;2022-10-30T03:27:47;14.60;;;8.47;;
12623;SDS011;6377;42.836;23.998;2022-10-30T03:30:16;16.47;;;9.00;;
12623;SDS011;6377;42.836;23.998;2022-10-30T03:32:44;12.13;;;7.00;;
12623;SDS011;6377;42.836;23.998;2022-10-30T03:35:11;8.30;;;5.80;;
12623;SDS011;6377;42.836;23.998;2022-10-30T03:37:38;8.10;;;6.20;;
12623;SDS011;6377;42.836;23.998;2022-10-30T03:40:06;9.33;;;6.33;;
12623;SDS011;6377;42.836;23.998;2022-10-30T03:42:38;9.57;;;6.83;;
12623;SDS011;6377;42.836;23.998;2022-10-30T03:45:06;7.60;;;6.17;;
12623;SDS011;6377;42.836;23.998;2022-10-30T03:47:36;8.73;;;6.50;;
12623;SDS011;6377;42.836;23.998;2022-10-30T03:50:05;7.43;;;5.77;;
12623;SDS011;6377;42.836;23.998;2022-10-30T03:52:33;7.70;;;6.37;;
12623;SDS011;6377;42.836;23.998;2022-10-30T03:55:00;12.90;;;6.33;;
12623;SDS011;6377;42.836;23.998;2022-10-30T03:57:27;6.57;;;5.70;;
12623;SDS011;6377;42.836;23.998;2022-10-30T03:59:55;8.63;;;5.60;;
12623;SDS011;6377;42.836;23.998;2022-10-30T04:02:22;5.67;;;5.00;;
12623;SDS011;6377;42.836;23.998;2022-10-30T04:04:50;7.43;;;5.10;;
12623;SDS011;6377;42.836;23.998;2022-10-30T04:07:18;6.90;;;5.07;;
12623;SDS011;6377;42.836;23.998;2022-10-30T04:09:45;8.50;;;4.73;;
12623;SDS011;6377;42.836;23.998;2022-10-30T04:12:12;7.43;;;5.53;;
12623;SDS011;6377;42.836;23.998;2022-10-30T04:14:40;7.23;;;5.40;;
12623;SDS011;6377;42.836;23.998;2022-10-30T04:17:07;8.10;;;5.63;;
12623;SDS011;6377;42.836;23.998;2022-10-30T04:19:34;7.27;;;5.90;;
12623;SDS011;6377;42.836;23.998;2022-10-30T04:22:03;6.40;;;5.80;;
12623;SDS011;6377;42.836;23.998;2022-10-30T04:24:31;6.50;;;5.27;;
12623;SDS011;6377;42.836;23.998;2022-10-30T04:26:58;7.33;;;6.20;;
12623;SDS011;6377;42.836;23.998;2022-10-30T04:29:25;11.00;;;6.77;;
12623;SDS011;6377;42.836;23.998;2022-10-30T04:31:53;9.17;;;7.00;;
12623;SDS011;6377;42.836;23.998;2022-10-30T04:34:20;11.37;;;6.93;;
12623;SDS011;6377;42.836;23.998;2022-10-30T04:36:47;11.73;;;7.23;;
12623;SDS011;6377;42.836;23.998;2022-10-30T04:39:16;10.27;;;7.30;;
12623;SDS011;6377;42.836;23.998;2022-10-30T04:41:43;10.67;;;8.20;;
12623;SDS011;6377;42.836;23.998;2022-10-30T04:44:10;10.57;;;8.00;;
12623;SDS011;6377;42.836;23.998;2022-10-30T04:46:37;10.83;;;7.93;;
12623;SDS011;6377;42.836;23.998;2022-10-30T04:49:04;16.00;;;9.13;;
12623;SDS011;6377;42.836;23.998;2022-10-30T04:51:31;10.77;;;8.93;;
12623;SDS011;6377;42.836;23.998;2022-10-30T04:53:59;12.67;;;9.57;;
12623;SDS011;6377;42.836;23.998;2022-10-30T04:56:27;12.23;;;9.60;;
12623;SDS011;6377;42.836;23.998;2022-10-30T04:59:00;19.37;;;10.27;;
12623;SDS011;6377;42.836;23.998;2022-10-30T05:01:28;17.53;;;11.03;;
12623;SDS011;6377;42.836;23.998;2022-10-30T05:03:56;17.07;;;12.30;;
12623;SDS011;6377;42.836;23.998;2022-10-30T05:06:24;19.63;;;13.50;;
12623;SDS011;6377;42.836;23.998;2022-10-30T05:08:53;20.27;;;13.73;;
12623;SDS011;6377;42.836;23.998;2022-10-30T05:11:20;20.70;;;14.17;;
12623;SDS011;6377;42.836;23.998;2022-10-30T05:13:49;21.10;;;14.13;;
12623;SDS011;6377;42.836;23.998;2022-10-30T05:16:16;24.27;;;16.67;;
12623;SDS011;6377;42.836;23.998;2022-10-30T05:18:44;31.60;;;16.77;;
12623;SDS011;6377;42.836;23.998;2022-10-30T05:21:11;30.33;;;21.63;;
12623;SDS011;6377;42.836;23.998;2022-10-30T05:23:38;30.70;;;20.77;;
12623;SDS011;6377;42.836;23.998;2022-10-30T05:26:05;25.30;;;18.07;;
12623;SDS011;6377;42.836;23.998;2022-10-30T05:28:32;19.00;;;13.13;;
12623;SDS011;6377;42.836;23.998;2022-10-30T05:31:01;33.13;;;22.57;;
12623;SDS011;6377;42.836;23.998;2022-10-30T05:33:28;32.30;;;22.90;;
12623;SDS011;6377;42.836;23.998;2022-10-30T05:35:55;44.07;;;25.33;;
12623;SDS011;6377;42.836;23.998;2022-10-30T05:38:22;25.33;;;15.43;;
12623;SDS011;6377;42.836;23.998;2022-10-30T05:40:50;19.60;;;14.13;;
12623;SDS011;6377;42.836;23.998;2022-10-30T05:43:17;24.07;;;16.97;;
12623;SDS011;6377;42.836;23.998;2022-10-30T05:45:44;19.80;;;15.17;;
12623;SDS011;6377;42.836;23.998;2022-10-30T05:48:15;23.03;;;15.07;;
12623;SDS011;6377;42.836;23.998;2022-10-30T05:50:43;30.63;;;21.83;;
12623;SDS011;6377;42.836;23.998;2022-10-30T05:53:10;36.53;;;24.90;;
12623;SDS011;6377;42.836;23.998;2022-10-30T05:55:37;32.90;;;21.20;;
12623;SDS011;6377;42.836;23.998;2022-10-30T05:58:04;33.50;;;20.63;;
12623;SDS011;6377;42.836;23.998;2022-10-30T06:00:32;29.80;;;20.33;;
12623;SDS011;6377;42.836;23.998;2022-10-30T06:03:01;24.97;;;18.10;;
12623;SDS011;6377;42.836;23.998;2022-10-30T06:05:32;27.37;;;18.70;;
12623;SDS011;6377;42.836;23.998;2022-10-30T06:08:00;20.47;;;15.83;;
12623;SDS011;6377;42.836;23.998;2022-10-30T06:10:28;20.20;;;16.10;;
12623;SDS011;6377;42.836;23.998;2022-10-30T06:12:56;22.93;;;16.53;;
12623;SDS011;6377;42.836;23.998;2022-10-30T06:15:24;23.00;;;17.23;;
12623;SDS011;6377;42.836;23.998;2022-10-30T06:17:52;26.73;;;20.50;;
12623;SDS011;6377;42.836;23.998;2022-10-30T06:20:20;35.17;;;24.73;;
12623;SDS011;6377;42.836;23.998;2022-10-30T06:22:54;58.00;;;28.10;;
12623;SDS011;6377;42.836;23.998;2022-10-30T06:25:22;47.83;;;31.43;;
12623;SDS011;6377;42.836;23.998;2022-10-30T06:27:49;51.07;;;32.10;;
12623;SDS011;6377;42.836;23.998;2022-10-30T06:30:16;74.30;;;34.63;;
12623;SDS011;6377;42.836;23.998;2022-10-30T06:32:44;43.27;;;24.53;;
12623;SDS011;6377;42.836;23.998;2022-10-30T06:35:11;58.13;;;31.77;;
12623;SDS011;6377;42.836;23.998;2022-10-30T06:37:43;27.87;;;18.43;;
12623;SDS011;6377;42.836;23.998;2022-10-30T06:40:13;29.10;;;20.60;;
12623;SDS011;6377;42.836;23.998;2022-10-30T06:42:41;31.70;;;23.53;;
12623;SDS011;6377;42.836;23.998;2022-10-30T06:45:09;40.47;;;30.37;;
12623;SDS011;6377;42.836;23.998;2022-10-30T06:47:37;44.70;;;33.33;;
12623;SDS011;6377;42.836;23.998;2022-10-30T06:50:05;43.87;;;32.40;;
12623;SDS011;6377;42.836;23.998;2022-10-30T06:52:35;39.23;;;29.27;;
12623;SDS011;6377;42.836;23.998;2022-10-30T06:55:02;45.77;;;34.97;;
12623;SDS011;6377;42.836;23.998;2022-10-30T06:57:32;39.93;;;30.03;;
12623;SDS011;6377;42.836;23.998;2022-10-30T06:59:59;42.53;;;32.77;;
12623;SDS011;6377;42.836;23.998;2022-10-30T07:02:27;37.30;;;29.63;;
12623;SDS011;6377;42.836;23.998;2022-10-30T07:04:55;40.63;;;29.87;;
12623;SDS011;6377;42.836;23.998;2022-10-30T07:07:22;36.23;;;27.73;;
12623;SDS011;6377;42.836;23.998;2022-10-30T07:09:49;33.87;;;26.43;;
12623;SDS011;6377;42.836;23.998;2022-10-30T07:12:16;35.67;;;27.90;;
12623;SDS011;6377;42.836;23.998;2022-10-30T07:14:45;33.83;;;26.27;;
12623;SDS011;6377;42.836;23.998;2022-10-30T07:17:12;38.40;;;27.57;;
12623;SDS011;6377;42.836;23.998;2022-10-30T07:19:39;34.40;;;25.57;;
12623;SDS011;6377;42.836;23.998;2022-10-30T07:22:07;28.27;;;20.60;;
12623;SDS011;6377;42.836;23.998;2022-10-30T07:24:34;28.60;;;20.77;;
12623;SDS011;6377;42.836;23.998;2022-10-30T07:27:01;24.70;;;19.70;;
12623;SDS011;6377;42.836;23.998;2022-10-30T07:29:28;26.17;;;18.27;;
12623;SDS011;6377;42.836;23.998;2022-10-30T07:31:57;22.87;;;15.13;;
12623;SDS011;6377;42.836;23.998;2022-10-30T07:34:24;20.30;;;12.90;;
12623;SDS011;6377;42.836;23.998;2022-10-30T07:36:51;18.10;;;12.10;;
12623;SDS011;6377;42.836;23.998;2022-10-30T07:39:18;10.20;;;7.90;;
12623;SDS011;6377;42.836;23.998;2022-10-30T07:41:47;13.33;;;10.37;;
12623;SDS011;6377;42.836;23.998;2022-10-30T07:44:14;19.03;;;11.27;;
12623;SDS011;6377;42.836;23.998;2022-10-30T07:46:41;12.63;;;10.17;;
12623;SDS011;6377;42.836;23.998;2022-10-30T07:49:10;12.10;;;9.40;;
12623;SDS011;6377;42.836;23.998;2022-10-30T07:51:37;7.27;;;4.97;;
12623;SDS011;6377;42.836;23.998;2022-10-30T07:54:04;10.17;;;6.70;;
12623;SDS011;6377;42.836;23.998;2022-10-30T07:56:31;9.83;;;6.53;;
12623;SDS011;6377;42.836;23.998;2022-10-30T07:58:58;5.33;;;4.23;;
12623;SDS011;6377;42.836;23.998;2022-10-30T08:01:26;9.73;;;5.30;;
12623;SDS011;6377;42.836;23.998;2022-10-30T08:03:53;13.80;;;7.17;;
12623;SDS011;6377;42.836;23.998;2022-10-30T08:06:21;9.70;;;6.07;;
12623;SDS011;6377;42.836;23.998;2022-10-30T08:08:48;14.53;;;9.00;;
12623;SDS011;6377;42.836;23.998;2022-10-30T08:11:15;32.07;;;21.30;;
12623;SDS011;6377;42.836;23.998;2022-10-30T08:13:43;12.27;;;7.10;;
12623;SDS011;6377;42.836;23.998;2022-10-30T08:16:10;9.87;;;6.87;;
12623;SDS011;6377;42.836;23.998;2022-10-30T08:18:37;16.03;;;10.60;;
12623;SDS011;6377;42.836;23.998;2022-10-30T08:21:06;28.70;;;22.77;;
12623;SDS011;6377;42.836;23.998;2022-10-30T08:23:35;36.00;;;26.10;;
12623;SDS011;6377;42.836;23.998;2022-10-30T08:26:02;87.77;;;60.97;;
12623;SDS011;6377;42.836;23.998;2022-10-30T08:28:30;24.33;;;17.37;;
12623;SDS011;6377;42.836;23.998;2022-10-30T08:30:57;19.60;;;14.03;;
12623;SDS011;6377;42.836;23.998;2022-10-30T08:33:24;13.80;;;9.00;;
12623;SDS011;6377;42.836;23.998;2022-10-30T08:35:52;105.90;;;72.17;;
12623;SDS011;6377;42.836;23.998;2022-10-30T08:38:21;40.00;;;26.63;;
12623;SDS011;6377;42.836;23.998;2022-10-30T08:40:50;13.80;;;9.80;;
12623;SDS011;6377;42.836;23.998;2022-10-30T08:43:17;8.43;;;6.43;;
12623;SDS011;6377;42.836;23.998;2022-10-30T08:45:45;37.70;;;33.87;;
12623;SDS011;6377;42.836;23.998;2022-10-30T08:48:12;14.00;;;12.50;;
12623;SDS011;6377;42.836;23.998;2022-10-30T08:50:41;10.13;;;8.30;;
12623;SDS011;6377;42.836;23.998;2022-10-30T08:53:09;13.80;;;6.43;;
12623;SDS011;6377;42.836;23.998;2022-10-30T08:55:38;9.43;;;5.37;;
12623;SDS011;6377;42.836;23.998;2022-10-30T08:58:06;6.03;;;3.65;;
12623;SDS011;6377;42.836;23.998;2022-10-30T09:00:34;5.45;;;4.43;;
12623;SDS011;6377;42.836;23.998;2022-10-30T09:03:01;6.18;;;3.60;;
12623;SDS011;6377;42.836;23.998;2022-10-30T09:05:28;6.28;;;4.25;;
12623;SDS011;6377;42.836;23.998;2022-10-30T09:07:58;5.60;;;4.90;;
12623;SDS011;6377;42.836;23.998;2022-10-30T09:10:28;6.55;;;5.03;;
12623;SDS011;6377;42.836;23.998;2022-10-30T09:12:56;6.85;;;5.40;;
12623;SDS011;6377;42.836;23.998;2022-10-30T09:15:25;4.95;;;4.43;;
12623;SDS011;6377;42.836;23.998;2022-10-30T09:17:56;5.90;;;4.93;;
12623;SDS011;6377;42.836;23.998;2022-10-30T09:20:24;8.23;;;4.10;;
12623;SDS011;6377;42.836;23.998;2022-10-30T09:22:52;28.13;;;22.98;;
12623;SDS011;6377;42.836;23.998;2022-10-30T09:25:19;11.27;;;4.93;;
12623;SDS011;6377;42.836;23.998;2022-10-30T09:27:46;9.88;;;6.50;;
12623;SDS011;6377;42.836;23.998;2022-10-30T09:30:13;9.93;;;3.92;;
12623;SDS011;6377;42.836;23.998;2022-10-30T09:32:42;6.35;;;4.10;;
12623;SDS011;6377;42.836;23.998;2022-10-30T09:35:09;4.47;;;2.80;;
12623;SDS011;6377;42.836;23.998;2022-10-30T09:37:37;4.57;;;3.45;;
12623;SDS011;6377;42.836;23.998;2022-10-30T09:40:05;5.18;;;4.20;;
12623;SDS011;6377;42.836;23.998;2022-10-30T09:42:38;3.55;;;2.67;;
12623;SDS011;6377;42.836;23.998;2022-10-30T09:45:10;9.23;;;2.35;;
12623;SDS011;6377;42.836;23.998;2022-10-30T09:48:21;3.60;;;1.80;;
12623;SDS011;6377;42.836;23.998;2022-10-30T09:51:04;2.20;;;1.80;;
12623;SDS011;6377;42.836;23.998;2022-10-30T09:53:43;8.52;;;2.40;;
12623;SDS011;6377;42.836;23.998;2022-10-30T09:56:21;3.17;;;1.70;;
12623;SDS011;6377;42.836;23.998;2022-10-30T09:58:55;9.85;;;7.63;;
12623;SDS011;6377;42.836;23.998;2022-10-30T10:01:32;5.00;;;2.22;;
12623;SDS011;6377;42.836;23.998;2022-10-30T10:04:12;3.42;;;2.10;;
12623;SDS011;6377;42.836;23.998;2022-10-30T10:06:49;6.20;;;3.80;;
12623;SDS011;6377;42.836;23.998;2022-10-30T10:09:21;4.38;;;1.70;;
12623;SDS011;6377;42.836;23.998;2022-10-30T10:11:51;3.38;;;1.80;;
12623;SDS011;6377;42.836;23.998;2022-10-30T10:14:22;3.03;;;1.60;;
12623;SDS011;6377;42.836;23.998;2022-10-30T10:16:53;2.80;;;2.08;;
12623;SDS011;6377;42.836;23.998;2022-10-30T10:19:25;1.98;;;1.60;;
12623;SDS011;6377;42.836;23.998;2022-10-30T10:21:57;2.53;;;1.63;;
12623;SDS011;6377;42.836;23.998;2022-10-30T10:24:26;2.97;;;1.55;;
12623;SDS011;6377;42.836;23.998;2022-10-30T10:26:56;1.70;;;1.40;;
12623;SDS011;6377;42.836;23.998;2022-10-30T10:29:32;1.92;;;1.42;;
12623;SDS011;6377;42.836;23.998;2022-10-30T10:32:16;2.58;;;1.80;;
12623;SDS011;6377;42.836;23.998;2022-10-30T10:37:58;2.25;;;2.00;;
12623;SDS011;6377;42.836;23.998;2022-10-30T10:40:37;1.88;;;1.50;;
12623;SDS011;6377;42.836;23.998;2022-10-30T10:43:17;5.28;;;2.05;;
12623;SDS011;6377;42.836;23.998;2022-10-30T10:45:57;3.15;;;1.60;;
12623;SDS011;6377;42.836;23.998;2022-10-30T10:48:44;3.10;;;1.65;;
12623;SDS011;6377;42.836;23.998;2022-10-30T10:51:23;2.70;;;1.58;;
12623;SDS011;6377;42.836;23.998;2022-10-30T10:53:55;2.47;;;1.58;;
12623;SDS011;6377;42.836;23.998;2022-10-30T10:56:27;3.83;;;2.10;;
12623;SDS011;6377;42.836;23.998;2022-10-30T10:59:00;2.95;;;1.92;;
12623;SDS011;6377;42.836;23.998;2022-10-30T11:01:35;2.55;;;1.55;;
12623;SDS011;6377;42.836;23.998;2022-10-30T11:04:04;2.28;;;1.50;;
12623;SDS011;6377;42.836;23.998;2022-10-30T11:06:40;3.63;;;1.60;;
12623;SDS011;6377;42.836;23.998;2022-10-30T11:09:13;1.95;;;1.20;;
12623;SDS011;6377;42.836;23.998;2022-10-30T11:11:43;1.48;;;1.30;;
12623;SDS011;6377;42.836;23.998;2022-10-30T11:14:14;3.85;;;1.85;;
12623;SDS011;6377;42.836;23.998;2022-10-30T11:16:50;1.75;;;1.48;;
12623;SDS011;6377;42.836;23.998;2022-10-30T11:19:27;3.22;;;1.25;;
12623;SDS011;6377;42.836;23.998;2022-10-30T11:21:58;1.65;;;1.17;;
12623;SDS011;6377;42.836;23.998;2022-10-30T11:24:27;1.65;;;1.50;;
12623;SDS011;6377;42.836;23.998;2022-10-30T11:26:56;2.05;;;1.45;;
12623;SDS011;6377;42.836;23.998;2022-10-30T11:29:25;3.20;;;1.50;;
12623;SDS011;6377;42.836;23.998;2022-10-30T11:32:00;5.05;;;2.60;;
12623;SDS011;6377;42.836;23.998;2022-10-30T11:34:32;2.85;;;1.27;;
12623;SDS011;6377;42.836;23.998;2022-10-30T11:37:02;2.38;;;1.30;;
12623;SDS011;6377;42.836;23.998;2022-10-30T11:39:30;42.08;;;31.27;;
12623;SDS011;6377;42.836;23.998;2022-10-30T11:41:59;4.05;;;2.92;;
12623;SDS011;6377;42.836;23.998;2022-10-30T11:44:30;3.83;;;1.67;;
12623;SDS011;6377;42.836;23.998;2022-10-30T11:47:00;2.97;;;1.63;;
12623;SDS011;6377;42.836;23.998;2022-10-30T11:52:20;3.53;;;2.67;;
12623;SDS011;6377;42.836;23.998;2022-10-30T11:54:49;3.72;;;2.08;;
12623;SDS011;6377;42.836;23.998;2022-10-30T11:57:22;4.13;;;2.45;;
12623;SDS011;6377;42.836;23.998;2022-10-30T11:59:56;2.88;;;1.77;;
12623;SDS011;6377;42.836;23.998;2022-10-30T12:02:25;3.03;;;2.40;;
12623;SDS011;6377;42.836;23.998;2022-10-30T12:04:53;4.30;;;2.47;;
12623;SDS011;6377;42.836;23.998;2022-10-30T12:07:28;6.72;;;5.05;;
12623;SDS011;6377;42.836;23.998;2022-10-30T12:09:57;5.45;;;1.63;;
12623;SDS011;6377;42.836;23.998;2022-10-30T12:12:26;4.57;;;3.40;;
12623;SDS011;6377;42.836;23.998;2022-10-30T12:14:58;4.95;;;1.95;;
12623;SDS011;6377;42.836;23.998;2022-10-30T12:17:36;3.15;;;1.50;;
12623;SDS011;6377;42.836;23.998;2022-10-30T12:20:05;2.92;;;1.77;;
12623;SDS011;6377;42.836;23.998;2022-10-30T12:22:40;10.85;;;6.65;;
12623;SDS011;6377;42.836;23.998;2022-10-30T12:25:14;3.03;;;2.22;;
12623;SDS011;6377;42.836;23.998;2022-10-30T12:27:47;3.20;;;1.50;;
12623;SDS011;6377;42.836;23.998;2022-10-30T12:30:16;4.05;;;2.40;;
12623;SDS011;6377;42.836;23.998;2022-10-30T12:32:46;7.75;;;5.57;;
12623;SDS011;6377;42.836;23.998;2022-10-30T12:35:21;4.82;;;2.80;;
12623;SDS011;6377;42.836;23.998;2022-10-30T12:38:04;5.47;;;3.25;;
12623;SDS011;6377;42.836;23.998;2022-10-30T12:40:35;4.90;;;2.70;;
12623;SDS011;6377;42.836;23.998;2022-10-30T12:43:11;5.03;;;1.83;;
12623;SDS011;6377;42.836;23.998;2022-10-30T12:45:44;3.28;;;1.90;;
12623;SDS011;6377;42.836;23.998;2022-10-30T12:48:15;3.38;;;1.40;;
12623;SDS011;6377;42.836;23.998;2022-10-30T12:50:51;4.78;;;2.47;;
12623;SDS011;6377;42.836;23.998;2022-10-30T12:53:31;3.55;;;1.58;;
12623;SDS011;6377;42.836;23.998;2022-10-30T12:56:05;2.78;;;1.55;;
12623;SDS011;6377;42.836;23.998;2022-10-30T12:58:38;1.85;;;1.50;;
12623;SDS011;6377;42.836;23.998;2022-10-30T13:01:14;5.85;;;1.60;;
12623;SDS011;6377;42.836;23.998;2022-10-30T13:03:52;4.70;;;2.00;;
12623;SDS011;6377;42.836;23.998;2022-10-30T13:06:24;2.70;;;1.77;;
12623;SDS011;6377;42.836;23.998;2022-10-30T13:09:02;3.80;;;1.83;;
12623;SDS011;6377;42.836;23.998;2022-10-30T13:11:35;4.60;;;2.30;;
12623;SDS011;6377;42.836;23.998;2022-10-30T13:14:09;7.03;;;2.08;;
12623;SDS011;6377;42.836;23.998;2022-10-30T13:16:40;1.58;;;1.40;;
12623;SDS011;6377;42.836;23.998;2022-10-30T13:19:07;3.53;;;1.50;;
12623;SDS011;6377;42.836;23.998;2022-10-30T13:21:37;2.20;;;1.60;;
12623;SDS011;6377;42.836;23.998;2022-10-30T13:24:11;4.07;;;2.50;;
12623;SDS011;6377;42.836;23.998;2022-10-30T13:26:42;3.13;;;2.17;;
12623;SDS011;6377;42.836;23.998;2022-10-30T13:29:16;4.55;;;1.77;;
12623;SDS011;6377;42.836;23.998;2022-10-30T13:31:51;3.67;;;1.63;;
12623;SDS011;6377;42.836;23.998;2022-10-30T13:34:31;3.88;;;1.77;;
12623;SDS011;6377;42.836;23.998;2022-10-30T13:37:07;3.10;;;1.77;;
12623;SDS011;6377;42.836;23.998;2022-10-30T13:39:44;3.78;;;1.85;;
12623;SDS011;6377;42.836;23.998;2022-10-30T13:42:26;6.60;;;2.30;;
12623;SDS011;6377;42.836;23.998;2022-10-30T13:45:10;4.40;;;2.47;;
12623;SDS011;6377;42.836;23.998;2022-10-30T13:47:54;4.93;;;2.10;;
12623;SDS011;6377;42.836;23.998;2022-10-30T13:50:36;3.05;;;2.05;;
12623;SDS011;6377;42.836;23.998;2022-10-30T13:53:14;5.72;;;2.65;;
12623;SDS011;6377;42.836;23.998;2022-10-30T13:55:49;10.68;;;8.25;;
12623;SDS011;6377;42.836;23.998;2022-10-30T13:58:18;5.88;;;3.53;;
12623;SDS011;6377;42.836;23.998;2022-10-30T14:00:56;4.97;;;2.20;;
12623;SDS011;6377;42.836;23.998;2022-10-30T14:03:36;4.72;;;2.22;;
12623;SDS011;6377;42.836;23.998;2022-10-30T14:06:09;5.38;;;2.05;;
12623;SDS011;6377;42.836;23.998;2022-10-30T14:08:49;2.50;;;1.67;;
12623;SDS011;6377;42.836;23.998;2022-10-30T14:11:22;2.67;;;1.70;;
12623;SDS011;6377;42.836;23.998;2022-10-30T14:13:52;3.00;;;1.85;;
12623;SDS011;6377;42.836;23.998;2022-10-30T14:16:30;18.55;;;14.15;;
12623;SDS011;6377;42.836;23.998;2022-10-30T14:19:04;5.15;;;2.80;;
12623;SDS011;6377;42.836;23.998;2022-10-30T14:21:37;2.60;;;1.83;;
12623;SDS011;6377;42.836;23.998;2022-10-30T14:24:09;8.25;;;4.75;;
12623;SDS011;6377;42.836;23.998;2022-10-30T14:26:41;8.90;;;6.00;;
12623;SDS011;6377;42.836;23.998;2022-10-30T14:32:35;12.30;;;7.88;;
12623;SDS011;6377;42.836;23.998;2022-10-30T14:41:02;27.00;;;15.88;;
12623;SDS011;6377;42.836;23.998;2022-10-30T14:43:49;33.83;;;22.38;;
12623;SDS011;6377;42.836;23.998;2022-10-30T14:46:25;22.42;;;12.50;;
12623;SDS011;6377;42.836;23.998;2022-10-30T14:49:01;103.35;;;66.25;;
12623;SDS011;6377;42.836;23.998;2022-10-30T14:51:36;66.53;;;44.45;;
12623;SDS011;6377;42.836;23.998;2022-10-30T14:54:11;88.97;;;41.53;;
12623;SDS011;6377;42.836;23.998;2022-10-30T14:56:48;254.35;;;113.50;;
12623;SDS011;6377;42.836;23.998;2022-10-30T14:59:22;229.05;;;103.40;;
12623;SDS011;6377;42.836;23.998;2022-10-30T15:05:02;163.13;;;71.60;;
12623;SDS011;6377;42.836;23.998;2022-10-30T15:07:52;61.75;;;32.25;;
12623;SDS011;6377;42.836;23.998;2022-10-30T15:10:27;74.43;;;40.03;;
12623;SDS011;6377;42.836;23.998;2022-10-30T15:13:01;43.00;;;26.40;;
12623;SDS011;6377;42.836;23.998;2022-10-30T15:15:35;44.38;;;24.42;;
12623;SDS011;6377;42.836;23.998;2022-10-30T15:18:06;52.08;;;30.27;;
12623;SDS011;6377;42.836;23.998;2022-10-30T15:20:36;54.13;;;34.53;;